East Union, Washington
Current Conditions -  °F | °C
As of 6:53 AM on Friday 31 Oct 2014 (Local Time) from KBFI Reporting Station
Light Rain Light Rain  
Wind Chill: 54°   Ceiling: 3200
Heat Index: 54°   Visibility: 5mi
Dew Point: 49°   Wind: 0mph
Humidity: 83%   Direction: NA
Pressure: 29.7"   Gusts: NA
Location:  47.6108°N, 122.302°W
Report Text: KBFI 311353Z 00000KT 5SM -RA SCT009 OVC032 12/09 A2970 RMK AO2 SLP056 P0003 T01220094
Loading
Personal Weather Stations






























Interactive Weather Map
Tropical Storm Tracking
New forecast layout! Learn more

10-Day Weather Forecast

Advertisements
Track Severe Weather on mobile